Glenwood, New York
Current Conditions -  °F | °C
As of 4:54 AM on Wednesday 22 Oct 2014 (Local Time) from KBUF Reporting Station
Overcast Overcast  
Wind Chill: 41°   Ceiling: 1800
Heat Index: 45°   Visibility: 10mi
Dew Point: 41°   Wind: 8mph
Humidity: 86%   Direction: 10°N
Pressure: 30.14"   Gusts: NA
Location:  42.61°N, 78.65°W
Report Text: KBUF 220854Z 01007KT 10SM OVC018 07/05 A3014 RMK AO2 SLP211 60000 T00720050 53010
Loading
Personal Weather Stations






























Interactive Weather Map New forecast layout! Learn more

10-Day Weather Forecast

Advertisements
Track Severe Weather on mobile